Time;durP1;ratioP1;P1;durP2;ratioP2;P2;SDS_P1;SDS_P2;PMS_P1;PMS_P2;Temp;Humidity;BMP_temperature;BMP_pressure;BME280_temperature;BME280_humidity;BME280_pressure;Samples;Min_cycle;Max_cycle;Signal;HPM_P1;HPM_P2
2022/03/03 00:00:07;;;;;;;55.55;23.55;;;0.90;99.90;;;;;;4933560;29;20051;-84
2022/03/03 00:02:32;;;;;;;58.95;23.17;;;1.00;99.90;;;;;;4918046;29;20043;-85
2022/03/03 00:04:58;;;;;;;58.80;24.38;;;1.00;99.90;;;;;;4934404;29;20040;-84
2022/03/03 00:07:23;;;;;;;57.30;24.42;;;1.10;99.90;;;;;;4934572;29;20376;-87
2022/03/03 00:09:49;;;;;;;62.80;23.90;;;1.10;99.90;;;;;;4918082;29;20042;-85
2022/03/03 00:12:14;;;;;;;68.43;24.65;;;1.20;99.90;;;;;;4935156;29;20048;-84
2022/03/03 00:14:40;;;;;;;58.03;22.13;;;1.20;99.90;;;;;;4919736;29;20036;-86
2022/03/03 00:17:06;;;;;;;56.35;21.88;;;1.20;99.90;;;;;;4935509;29;20067;-86
2022/03/03 00:19:31;;;;;;;64.60;24.95;;;1.20;99.90;;;;;;4934181;29;20036;-85
2022/03/03 00:21:57;;;;;;;55.13;24.00;;;1.20;99.90;;;;;;4950625;29;20050;-85
2022/03/03 00:24:23;;;;;;;55.97;23.63;;;1.20;99.90;;;;;;4918226;29;20035;-84
2022/03/03 00:26:48;;;;;;;55.72;22.35;;;1.20;99.90;;;;;;4934567;29;20050;-86
2022/03/03 00:29:14;;;;;;;56.65;23.23;;;1.20;99.90;;;;;;4934795;29;20055;-85
2022/03/03 00:31:39;;;;;;;55.63;23.73;;;1.20;99.90;;;;;;4919099;29;20042;-85
2022/03/03 00:34:05;;;;;;;55.80;22.80;;;1.10;99.90;;;;;;4934975;29;20558;-84
2022/03/03 00:36:31;;;;;;;57.03;22.60;;;1.10;99.90;;;;;;4916528;29;20111;-85
2022/03/03 00:38:56;;;;;;;51.58;21.90;;;1.10;99.90;;;;;;4934090;29;20402;-85
2022/03/03 00:41:22;;;;;;;51.10;21.50;;;1.10;99.90;;;;;;4935207;29;20043;-84
2022/03/03 00:43:47;;;;;;;55.78;22.83;;;1.00;99.90;;;;;;4934606;29;20058;-84
2022/03/03 00:46:13;;;;;;;50.63;23.20;;;1.00;99.90;;;;;;4933381;29;20063;-84
2022/03/03 00:48:39;;;;;;;53.65;21.88;;;0.90;99.90;;;;;;4933024;29;20050;-85
2022/03/03 00:51:06;;;;;;;52.25;22.10;;;0.90;99.90;;;;;;4935322;29;20048;-84
2022/03/03 00:53:34;;;;;;;60.05;23.80;;;0.80;99.90;;;;;;4935479;29;20058;-84
2022/03/03 00:56:00;;;;;;;53.72;22.67;;;0.80;99.90;;;;;;4936515;29;20061;-83
2022/03/03 00:58:25;;;;;;;54.47;22.75;;;0.70;99.90;;;;;;4936579;29;20055;-84
2022/03/03 01:00:51;;;;;;;46.60;22.40;;;0.70;99.90;;;;;;4918932;29;20083;-85
2022/03/03 01:03:16;;;;;;;49.10;21.67;;;0.60;99.90;;;;;;4935344;29;20046;-83
2022/03/03 01:05:42;;;;;;;57.05;23.10;;;0.60;99.90;;;;;;4936742;29;20099;-85
2022/03/03 01:08:10;;;;;;;61.35;24.05;;;0.50;99.90;;;;;;4952004;29;20044;-84
2022/03/03 01:10:39;;;;;;;57.10;24.63;;;0.50;99.90;;;;;;4936040;29;20067;-84
2022/03/03 01:13:05;;;;;;;52.58;21.67;;;0.50;99.90;;;;;;4938304;29;20093;-84
2022/03/03 01:15:31;;;;;;;52.10;22.33;;;0.50;99.90;;;;;;4936677;29;20128;-84
2022/03/03 01:17:57;;;;;;;50.53;23.25;;;0.50;99.90;;;;;;4936858;29;20051;-84
2022/03/03 01:20:23;;;;;;;49.38;21.40;;;0.40;99.90;;;;;;4934783;29;20106;-84
2022/03/03 01:22:48;;;;;;;48.45;21.10;;;0.30;99.90;;;;;;4918605;29;20064;-83
2022/03/03 01:25:14;;;;;;;49.63;21.50;;;0.20;99.90;;;;;;4919680;29;20063;-84
2022/03/03 01:27:39;;;;;;;51.28;22.08;;;0.10;99.90;;;;;;4921817;29;20122;-85
2022/03/03 01:30:06;;;;;;;53.80;20.23;;;0.00;99.90;;;;;;4921032;29;20035;-84
2022/03/03 01:32:32;;;;;;;52.05;21.25;;;0.00;99.90;;;;;;4922059;29;20050;-84
2022/03/03 01:34:57;;;;;;;51.75;22.15;;;0.00;99.90;;;;;;4906741;29;20126;-85
2022/03/03 01:37:23;;;;;;;51.05;21.20;;;-0.10;99.90;;;;;;4922517;29;20095;-84
2022/03/03 01:39:49;;;;;;;53.85;23.58;;;-0.10;99.90;;;;;;4906366;29;20095;-83
2022/03/03 01:42:15;;;;;;;57.35;22.98;;;-0.20;99.90;;;;;;4923713;29;20047;-84
2022/03/03 01:44:43;;;;;;;53.15;22.13;;;-0.20;99.90;;;;;;4923012;29;20035;-84
2022/03/03 01:47:16;;;;;;;49.78;22.73;;;-0.20;99.90;;;;;;4922850;29;20399;-84
2022/03/03 01:49:42;;;;;;;56.28;22.88;;;-0.10;99.90;;;;;;4921609;29;20495;-85
2022/03/03 01:52:07;;;;;;;57.80;23.60;;;-0.10;99.90;;;;;;4938924;29;20055;-84
2022/03/03 01:54:33;;;;;;;59.92;23.80;;;-0.10;99.90;;;;;;4929174;29;20051;-84
2022/03/03 01:56:59;;;;;;;57.55;22.42;;;-0.20;99.90;;;;;;4928395;29;20518;-85
2022/03/03 01:59:25;;;;;;;52.50;23.63;;;-0.10;99.90;;;;;;4929709;29;20545;-84
2022/03/03 02:01:51;;;;;;;53.75;23.15;;;-0.20;99.90;;;;;;4933507;29;20063;-84
2022/03/03 02:04:17;;;;;;;51.50;22.73;;;-0.20;99.90;;;;;;4934761;29;20046;-84
2022/03/03 02:06:42;;;;;;;50.00;21.45;;;-0.20;99.90;;;;;;4934639;29;20091;-84
2022/03/03 02:09:08;;;;;;;59.22;24.25;;;-0.20;99.90;;;;;;4950184;29;20136;-84
2022/03/03 02:11:34;;;;;;;53.28;22.95;;;-0.10;99.90;;;;;;4950766;29;20040;-83
2022/03/03 02:14:02;;;;;;;53.42;21.88;;;-0.10;99.90;;;;;;4918283;29;20046;-85
2022/03/03 02:16:28;;;;;;;50.88;22.40;;;-0.10;99.90;;;;;;4918393;29;20071;-84
2022/03/03 02:18:53;;;;;;;59.33;22.52;;;0.00;99.90;;;;;;4918263;29;20036;-85
2022/03/03 02:21:20;;;;;;;52.38;23.70;;;0.00;99.90;;;;;;4934083;29;20134;-83
2022/03/03 02:23:46;;;;;;;52.97;23.27;;;0.00;99.90;;;;;;4934241;29;20047;-84
2022/03/03 02:26:22;;;;;;;53.50;22.70;;;0.00;99.90;;;;;;4936411;29;20095;-83
2022/03/03 02:28:49;;;;;;;51.00;22.02;;;-0.10;99.90;;;;;;4938947;29;20031;-85
2022/03/03 02:31:14;;;;;;;56.92;23.02;;;-0.10;99.90;;;;;;4938032;29;20051;-82
2022/03/03 02:33:40;;;;;;;52.15;21.13;;;-0.20;99.90;;;;;;4942717;29;20040;-84
2022/03/03 02:36:24;;;;;;;53.50;21.55;;;-0.20;99.90;;;;;;4943547;29;20067;-83
2022/03/03 02:38:55;;;;;;;54.35;21.85;;;-0.20;99.90;;;;;;4926559;29;20059;-83
2022/03/03 02:41:21;;;;;;;53.43;22.50;;;-0.30;99.90;;;;;;4926543;29;20043;-84
2022/03/03 02:43:47;;;;;;;56.13;23.60;;;-0.30;99.90;;;;;;4940666;29;20304;-81
2022/03/03 02:46:13;;;;;;;51.90;23.38;;;-0.30;99.90;;;;;;4934737;29;20100;-80
2022/03/03 02:48:40;;;;;;;54.70;22.90;;;-0.30;99.90;;;;;;4935233;29;20040;-80
2022/03/03 02:51:06;;;;;;;56.17;23.25;;;-0.30;99.90;;;;;;4934598;29;20075;-81
2022/03/03 02:53:32;;;;;;;56.45;22.15;;;-0.30;99.90;;;;;;4920370;29;20415;-81
2022/03/03 02:55:58;;;;;;;51.50;21.58;;;-0.30;99.90;;;;;;4933958;29;20075;-81
2022/03/03 02:58:24;;;;;;;57.95;23.08;;;-0.40;99.90;;;;;;4935322;29;20088;-80
2022/03/03 03:00:50;;;;;;;56.05;21.42;;;-0.50;99.90;;;;;;4934733;29;20048;-80
2022/03/03 03:03:16;;;;;;;54.40;22.92;;;-0.50;99.90;;;;;;4934540;29;20466;-80
2022/03/03 03:05:43;;;;;;;53.97;22.10;;;-0.50;99.90;;;;;;4934910;29;20047;-80
2022/03/03 03:08:09;;;;;;;50.35;20.80;;;-0.60;99.90;;;;;;4934703;29;20055;-80
2022/03/03 03:10:35;;;;;;;49.78;20.95;;;-0.60;99.90;;;;;;4934635;29;20048;-80
2022/03/03 03:13:01;;;;;;;50.35;22.63;;;-0.60;99.90;;;;;;4934046;29;20469;-80
2022/03/03 03:15:26;;;;;;;59.35;22.90;;;-0.70;99.90;;;;;;4933408;29;20040;-80
2022/03/03 03:17:52;;;;;;;57.10;22.42;;;-0.80;99.90;;;;;;4933110;29;20040;-80
2022/03/03 03:20:18;;;;;;;47.30;20.55;;;-0.70;99.90;;;;;;4932884;29;20047;-80
2022/03/03 03:22:43;;;;;;;52.85;20.75;;;-0.80;99.90;;;;;;4934245;29;20071;-80
2022/03/03 03:25:12;;;;;;;47.10;20.90;;;-0.80;99.90;;;;;;4933803;29;20044;-80
2022/03/03 03:27:40;;;;;;;46.38;19.65;;;-0.80;99.90;;;;;;4918375;29;20063;-80
2022/03/03 03:30:09;;;;;;;46.67;22.08;;;-0.90;99.90;;;;;;4933421;29;20043;-80
2022/03/03 03:32:36;;;;;;;49.58;21.75;;;-0.90;99.90;;;;;;4949914;29;20051;-80
2022/03/03 03:35:04;;;;;;;54.88;21.90;;;-0.80;99.90;;;;;;4936019;29;20103;-80
2022/03/03 03:37:29;;;;;;;49.85;20.35;;;-0.80;99.90;;;;;;4936110;29;20055;-80
2022/03/03 03:39:56;;;;;;;49.40;19.50;;;-0.80;99.90;;;;;;4933662;29;20047;-80
2022/03/03 03:42:21;;;;;;;49.20;20.65;;;-0.80;99.90;;;;;;4948280;29;20048;-80
2022/03/03 03:44:47;;;;;;;45.97;19.20;;;-0.80;99.90;;;;;;4931232;29;20063;-80
2022/03/03 03:47:13;;;;;;;44.95;20.10;;;-0.70;99.90;;;;;;4918141;29;20039;-80
2022/03/03 03:49:39;;;;;;;47.50;21.10;;;-0.70;99.90;;;;;;4933631;29;20055;-80
2022/03/03 03:52:05;;;;;;;47.85;20.25;;;-0.70;99.90;;;;;;4949976;29;20048;-80
2022/03/03 03:54:31;;;;;;;49.22;21.23;;;-0.70;99.90;;;;;;4932681;29;20048;-80
2022/03/03 03:56:56;;;;;;;40.20;18.35;;;-0.60;99.90;;;;;;4930973;29;20047;-80
2022/03/03 03:59:22;;;;;;;45.80;19.90;;;-0.70;99.90;;;;;;4930917;29;20051;-80
2022/03/03 04:01:48;;;;;;;48.60;20.40;;;-0.70;99.90;;;;;;4946221;29;20525;-80
2022/03/03 04:04:13;;;;;;;47.55;20.30;;;-0.70;99.90;;;;;;4930546;29;20044;-80
2022/03/03 04:06:40;;;;;;;42.13;18.98;;;-0.80;99.90;;;;;;4930702;29;20047;-80
2022/03/03 04:09:06;;;;;;;39.78;18.20;;;-0.70;99.90;;;;;;4930613;29;20058;-80
2022/03/03 04:11:31;;;;;;;40.63;18.30;;;-0.80;99.90;;;;;;4928790;29;20057;-80
2022/03/03 04:13:57;;;;;;;41.88;19.85;;;-0.80;99.90;;;;;;4928588;29;20097;-80
2022/03/03 04:16:26;;;;;;;45.97;19.30;;;-0.80;99.90;;;;;;4945701;29;20075;-80
2022/03/03 04:18:52;;;;;;;46.80;21.15;;;-0.70;99.90;;;;;;4926485;29;20036;-80
2022/03/03 04:21:18;;;;;;;38.42;16.73;;;-0.70;99.90;;;;;;4927636;29;20290;-80
2022/03/03 04:23:44;;;;;;;43.10;17.45;;;-0.70;99.90;;;;;;4927122;29;20071;-80
2022/03/03 04:26:10;;;;;;;39.22;17.80;;;-0.70;99.90;;;;;;4926187;29;20043;-80
2022/03/03 04:28:36;;;;;;;38.15;18.75;;;-0.70;99.90;;;;;;4927620;29;20036;-80
2022/03/03 04:31:02;;;;;;;42.47;18.90;;;-0.60;99.90;;;;;;4910768;29;20052;-80
2022/03/03 04:33:28;;;;;;;43.08;18.35;;;-0.60;99.90;;;;;;4927837;29;20187;-80
2022/03/03 04:35:53;;;;;;;42.08;17.60;;;-0.50;99.90;;;;;;4929364;29;20519;-80
2022/03/03 04:38:19;;;;;;;40.67;17.17;;;-0.50;99.90;;;;;;4928431;29;20380;-80
2022/03/03 04:40:45;;;;;;;42.17;20.13;;;-0.50;99.90;;;;;;4928741;29;20082;-80
2022/03/03 04:43:10;;;;;;;45.60;17.90;;;-0.50;99.90;;;;;;4928496;29;20054;-80
2022/03/03 04:45:36;;;;;;;38.75;17.73;;;-0.50;99.90;;;;;;4944850;29;20423;-80
2022/03/03 04:48:02;;;;;;;44.03;18.70;;;-0.50;99.90;;;;;;4929147;29;20079;-80
2022/03/03 04:50:28;;;;;;;43.30;19.50;;;-0.50;99.90;;;;;;4926406;29;20050;-80
2022/03/03 04:52:53;;;;;;;43.45;18.73;;;-0.60;99.90;;;;;;4925722;29;20044;-80
2022/03/03 04:55:19;;;;;;;38.28;17.70;;;-0.50;99.90;;;;;;4926128;29;20392;-80
2022/03/03 04:57:45;;;;;;;40.15;19.25;;;-0.60;99.90;;;;;;4927026;29;20130;-80
2022/03/03 05:00:11;;;;;;;46.95;19.42;;;-0.60;99.90;;;;;;4926021;29;20039;-80
2022/03/03 05:02:36;;;;;;;39.53;18.52;;;-0.60;99.90;;;;;;4925544;29;20082;-80
2022/03/03 05:05:03;;;;;;;39.25;17.42;;;-0.70;99.90;;;;;;4924904;29;20067;-80
2022/03/03 05:07:29;;;;;;;41.80;18.95;;;-0.60;99.90;;;;;;4925394;29;20051;-80
2022/03/03 05:09:54;;;;;;;43.15;18.17;;;-0.60;99.90;;;;;;4925188;29;20036;-80
2022/03/03 05:12:20;;;;;;;41.15;20.48;;;-0.60;99.90;;;;;;4924818;29;20190;-80
2022/03/03 05:14:45;;;;;;;40.72;19.15;;;-0.70;99.90;;;;;;4926231;29;20057;-80
2022/03/03 05:17:11;;;;;;;46.28;19.55;;;-0.70;99.90;;;;;;4926961;29;20051;-80
2022/03/03 05:19:36;;;;;;;41.78;21.52;;;-0.60;99.90;;;;;;4925373;29;20523;-80
2022/03/03 05:22:02;;;;;;;41.22;18.58;;;-0.60;99.90;;;;;;4925179;29;20403;-80
2022/03/03 05:24:28;;;;;;;40.10;19.58;;;-0.60;99.90;;;;;;4924520;29;20112;-80
2022/03/03 05:26:53;;;;;;;40.00;18.98;;;-0.70;99.90;;;;;;4923571;29;20040;-80
2022/03/03 05:29:19;;;;;;;36.40;17.85;;;-0.70;99.90;;;;;;4923792;29;20039;-80
2022/03/03 05:31:44;;;;;;;38.72;18.25;;;-0.70;99.90;;;;;;4923681;29;20110;-80
2022/03/03 05:34:56;;;;;;;35.65;17.27;;;-0.70;99.90;;;;;;4935663;23;20056;-80
2022/03/03 05:37:35;;;;;;;39.83;18.90;;;-0.90;99.90;;;;;;4928505;29;20052;-80
2022/03/03 05:44:00;;;;;;;38.63;17.15;;;-0.90;99.90;;;;;;4894207;29;20047;-81
2022/03/03 05:46:57;;;;;;;;;;;;;;;;;;;;;
2022/03/03 05:49:26;;;;;;;89.18;40.42;;;-0.80;99.90;;;;;;4918327;29;20143;-86
2022/03/03 05:51:52;;;;;;;45.08;20.45;;;-0.90;99.90;;;;;;4921911;29;20079;-84
2022/03/03 05:54:17;;;;;;;46.70;20.95;;;-0.80;99.90;;;;;;4923558;29;20055;-83
2022/03/03 05:56:48;;;;;;;37.53;19.33;;;-0.90;99.90;;;;;;4921418;29;20518;-85
2022/03/03 05:59:15;;;;;;;37.53;16.58;;;-0.80;99.90;;;;;;4919108;29;20054;-84
2022/03/03 06:01:42;;;;;;;32.20;16.20;;;-0.70;99.90;;;;;;4919049;29;20515;-85
2022/03/03 06:04:17;;;;;;;35.33;15.80;;;-0.70;99.90;;;;;;4903451;29;20083;-85
2022/03/03 06:07:05;;;;;;;32.33;16.58;;;-0.70;99.90;;;;;;4919393;29;20047;-85
2022/03/03 06:09:35;;;;;;;32.45;16.58;;;-0.70;99.90;;;;;;4923973;29;20411;-85
2022/03/03 06:12:20;;;;;;;38.17;18.08;;;-0.70;99.90;;;;;;4923842;29;20048;-84
2022/03/03 06:14:53;;;;;;;122.38;50.25;;;-0.70;99.90;;;;;;4923307;29;20048;-84
2022/03/03 06:17:22;;;;;;;56.50;25.17;;;-0.70;99.90;;;;;;4925030;29;20051;-84
2022/03/03 06:19:54;;;;;;;58.42;23.58;;;-0.70;99.90;;;;;;4924334;29;20126;-84
2022/03/03 06:22:20;;;;;;;39.70;18.00;;;-0.60;99.90;;;;;;4924620;29;20110;-85
2022/03/03 06:24:47;;;;;;;36.80;20.17;;;-0.60;99.90;;;;;;4906264;29;20079;-84
2022/03/03 06:27:13;;;;;;;33.03;18.15;;;-0.50;99.90;;;;;;4922724;29;20081;-85
2022/03/03 06:29:39;;;;;;;31.88;16.05;;;-0.60;99.90;;;;;;4922051;29;20518;-85
2022/03/03 06:32:05;;;;;;;53.85;25.58;;;-0.50;99.90;;;;;;4920990;29;20047;-85
2022/03/03 06:34:31;;;;;;;73.57;32.95;;;-0.40;99.90;;;;;;4921359;29;20126;-85
2022/03/03 06:36:57;;;;;;;114.75;51.50;;;-0.40;99.90;;;;;;4921446;29;20092;-85
2022/03/03 06:39:23;;;;;;;61.67;24.48;;;-0.40;99.90;;;;;;4921147;29;20035;-84
2022/03/03 06:41:48;;;;;;;47.15;20.80;;;-0.40;99.90;;;;;;4920378;29;20136;-85
2022/03/03 06:44:14;;;;;;;32.55;16.73;;;-0.40;99.90;;;;;;4921087;29;20050;-84
2022/03/03 06:47:46;;;;;;;;;;;;;;;;;;;;;
2022/03/03 06:54:57;;;;;;;29.63;15.88;;;-0.10;99.90;;;;;;4874244;29;20081;-81
2022/03/03 06:58:09;;;;;;;37.65;16.95;;;-0.10;99.90;;;;;;4874374;29;20101;-81
2022/03/03 07:01:19;;;;;;;39.97;17.38;;;0.00;99.90;;;;;;4892741;29;20043;-81
2022/03/03 07:04:03;;;;;;;33.67;16.40;;;0.00;99.90;;;;;;4925906;29;20062;-81
2022/03/03 07:06:59;;;;;;;33.80;15.05;;;0.20;99.90;;;;;;4929059;29;20420;-81
2022/03/03 07:18:11;;;;;;;29.63;15.17;;;0.50;99.90;;;;;;4814928;29;20049;-83
2022/03/03 07:29:19;;;;;;;26.98;14.55;;;1.10;99.90;;;;;;4799438;29;20138;-82
2022/03/03 07:32:38;;;;;;;28.73;15.07;;;1.40;99.90;;;;;;4825231;29;20052;-82
2022/03/03 08:00:46;;;;;;;30.60;14.60;;;3.80;99.90;;;;;;4919250;29;20126;-85
2022/03/03 08:03:24;;;;;;;27.52;14.55;;;3.90;99.90;;;;;;4933681;29;20043;-86
2022/03/03 08:06:01;;;;;;;23.73;13.13;;;3.90;99.90;;;;;;4919473;29;20048;-84
2022/03/03 08:08:43;;;;;;;24.75;13.02;;;3.90;99.90;;;;;;4920027;29;20458;-84
2022/03/03 08:11:19;;;;;;;25.50;14.35;;;4.00;99.90;;;;;;4919451;29;20471;-85
2022/03/03 08:14:30;;;;;;;26.88;13.93;;;3.80;99.90;;;;;;4919827;29;20450;-85
2022/03/03 08:21:35;;;;;;;23.25;12.77;;;4.40;99.90;;;;;;4896811;29;20400;-85
2022/03/03 08:24:46;;;;;;;29.52;15.23;;;4.40;99.90;;;;;;4918892;29;20074;-84
2022/03/03 08:27:37;;;;;;;26.35;12.88;;;4.20;99.90;;;;;;4923391;29;20070;-84
2022/03/03 08:30:42;;;;;;;;;;;;;;;;;;;;;
2022/03/03 08:34:02;;;;;;;25.33;13.25;;;3.90;99.90;;;;;;4918751;29;20044;-84
2022/03/03 08:41:28;;;;;;;;;;;;;;;;;;;;;
2022/03/03 08:44:48;;;;;;;29.40;14.57;;;4.00;99.90;;;;;;4865593;29;20061;-85
2022/03/03 08:59:24;;;;;;;23.65;12.75;;;5.20;99.90;;;;;;4831160;29;20057;-84
2022/03/03 09:02:37;;;;;;;23.40;13.00;;;5.60;99.90;;;;;;4867231;29;20055;-85
2022/03/03 09:05:23;;;;;;;23.75;14.02;;;5.70;99.90;;;;;;4879358;29;20488;-85
2022/03/03 09:07:52;;;;;;;23.08;12.43;;;5.80;99.90;;;;;;4876512;29;20037;-85
2022/03/03 09:10:18;;;;;;;29.67;13.73;;;5.90;99.90;;;;;;4892194;29;20051;-86
2022/03/03 09:12:43;;;;;;;30.80;13.77;;;5.90;99.90;;;;;;4894804;29;20056;-86
2022/03/03 09:40:49;;;;;;;25.90;14.02;;;7.10;99.90;;;;;;4893475;29;20048;-85
2022/03/03 09:51:21;;;;;;;23.42;12.52;;;7.80;99.90;;;;;;4862898;29;20140;-85
2022/03/03 09:57:28;;;;;;;24.95;12.95;;;8.90;99.90;;;;;;4875942;29;20082;-86
2022/03/03 09:59:53;;;;;;;24.48;12.85;;;9.40;99.90;;;;;;4876528;29;20093;-83
2022/03/03 10:02:19;;;;;;;23.42;13.52;;;9.70;99.90;;;;;;4889777;29;20052;-83
2022/03/03 10:04:44;;;;;;;21.52;12.48;;;9.90;99.90;;;;;;4914406;29;20457;-83
2022/03/03 10:07:10;;;;;;;22.73;13.32;;;10.20;99.90;;;;;;4913916;29;20130;-83
2022/03/03 10:09:59;;;;;;;26.67;13.15;;;10.50;99.90;;;;;;4887915;29;20062;-83
2022/03/03 10:12:26;;;;;;;20.33;12.80;;;10.80;99.90;;;;;;4918102;29;20087;-83
2022/03/03 10:14:57;;;;;;;24.77;13.98;;;11.20;99.90;;;;;;4918194;29;20055;-83
2022/03/03 10:17:38;;;;;;;24.58;13.30;;;11.20;93.80;;;;;;4918078;29;20094;-83
2022/03/03 10:20:06;;;;;;;20.60;13.00;;;11.10;88.40;;;;;;4917988;29;20242;-83
2022/03/03 10:22:44;;;;;;;21.67;13.00;;;11.10;99.90;;;;;;4919000;29;20079;-83
2022/03/03 10:25:11;;;;;;;21.40;12.82;;;10.70;99.90;;;;;;4918008;29;20055;-81
2022/03/03 10:27:37;;;;;;;19.95;11.77;;;10.50;99.90;;;;;;4934336;29;20044;-82
2022/03/03 10:30:05;;;;;;;24.40;12.65;;;10.20;99.90;;;;;;4918660;29;20043;-82
2022/03/03 10:32:31;;;;;;;26.23;13.10;;;9.90;99.90;;;;;;4919122;29;20410;-81
2022/03/03 10:35:14;;;;;;;24.05;13.95;;;9.50;99.90;;;;;;4918078;29;20127;-82
2022/03/03 10:37:41;;;;;;;18.90;12.30;;;9.30;98.90;;;;;;4902756;29;20044;-82
2022/03/03 10:40:14;;;;;;;20.05;12.70;;;9.10;99.90;;;;;;4918790;29;20067;-82
2022/03/03 10:42:48;;;;;;;17.83;11.48;;;9.00;99.90;;;;;;4918850;29;20044;-82
2022/03/03 10:45:17;;;;;;;19.27;12.15;;;8.90;99.90;;;;;;4918214;29;20122;-82
2022/03/03 10:47:45;;;;;;;21.08;11.88;;;8.90;99.90;;;;;;4918354;29;20042;-82
2022/03/03 10:50:11;;;;;;;19.02;11.18;;;8.90;99.90;;;;;;4917915;29;20047;-81
2022/03/03 10:52:40;;;;;;;20.98;11.48;;;8.90;99.90;;;;;;4919024;29;20044;-82
2022/03/03 10:55:13;;;;;;;19.38;11.20;;;9.00;99.90;;;;;;4922468;29;20507;-81
2022/03/03 10:57:44;;;;;;;17.25;11.23;;;9.10;99.90;;;;;;4922278;29;20151;-82
2022/03/03 11:00:12;;;;;;;20.60;11.35;;;9.10;87.60;;;;;;4937507;29;20055;-82
2022/03/03 11:02:46;;;;;;;19.17;11.02;;;9.10;99.90;;;;;;4936537;29;20047;-83
2022/03/03 11:05:13;;;;;;;19.98;12.02;;;9.20;92.40;;;;;;4920433;29;20048;-83
2022/03/03 11:07:41;;;;;;;17.65;10.82;;;9.20;99.90;;;;;;4920428;29;20043;-83
2022/03/03 11:10:08;;;;;;;17.75;10.75;;;9.30;99.90;;;;;;4920224;29;20456;-83
2022/03/03 11:12:34;;;;;;;18.60;10.15;;;9.30;99.80;;;;;;4920359;29;20040;-83
2022/03/03 11:15:00;;;;;;;18.98;10.98;;;9.40;96.30;;;;;;4918347;29;20096;-78
2022/03/03 11:17:26;;;;;;;19.55;11.45;;;9.40;99.90;;;;;;4919098;29;20063;-78
2022/03/03 11:19:52;;;;;;;19.15;10.48;;;9.40;99.90;;;;;;4899377;29;20361;-77
2022/03/03 11:22:18;;;;;;;20.35;10.68;;;9.50;97.30;;;;;;4883048;29;20048;-78
2022/03/03 11:24:45;;;;;;;19.58;10.82;;;9.50;98.60;;;;;;4900177;29;20048;-74
2022/03/03 11:27:11;;;;;;;19.55;10.68;;;9.40;99.10;;;;;;4915630;29;20040;-80
2022/03/03 11:29:38;;;;;;;17.42;10.73;;;9.50;99.60;;;;;;4899776;29;20040;-80
2022/03/03 11:32:12;;;;;;;20.90;11.18;;;9.40;98.70;;;;;;4900447;29;20423;-80
2022/03/03 11:34:37;;;;;;;21.58;10.63;;;9.40;93.60;;;;;;4900403;29;20040;-80
2022/03/03 11:37:04;;;;;;;24.00;11.27;;;9.40;90.70;;;;;;4916510;29;20047;-79
2022/03/03 11:39:42;;;;;;;18.10;10.57;;;9.40;92.10;;;;;;4900194;29;20555;-80
2022/03/03 11:42:31;;;;;;;18.80;10.75;;;9.40;74.40;;;;;;4907835;29;20063;-82
2022/03/03 11:45:17;;;;;;;17.30;10.02;;;9.50;81.50;;;;;;4902107;29;20060;-82
2022/03/03 11:47:45;;;;;;;22.67;10.20;;;9.50;74.50;;;;;;4901895;29;20127;-82
2022/03/03 11:50:16;;;;;;;19.05;10.68;;;9.70;97.70;;;;;;4900997;29;20526;-81
2022/03/03 11:52:50;;;;;;;17.52;9.40;;;9.80;98.80;;;;;;4903191;29;20094;-82
2022/03/03 11:55:30;;;;;;;17.65;10.50;;;9.90;98.10;;;;;;4902108;29;20084;-81
2022/03/03 11:58:06;;;;;;;15.52;9.35;;;10.00;87.90;;;;;;4902717;29;20047;-81
2022/03/03 12:00:35;;;;;;;16.52;9.43;;;10.10;98.20;;;;;;4920541;29;20424;-81
2022/03/03 12:03:03;;;;;;;15.60;9.40;;;10.20;97.40;;;;;;4902668;29;20067;-82
2022/03/03 12:05:36;;;;;;;15.98;9.65;;;10.30;97.30;;;;;;4901832;29;20068;-82
2022/03/03 12:08:03;;;;;;;16.45;9.52;;;10.30;98.40;;;;;;4886329;29;20079;-82
2022/03/03 12:10:29;;;;;;;17.65;9.73;;;10.30;97.90;;;;;;4901748;29;20499;-80
2022/03/03 12:13:27;;;;;;;14.55;8.82;;;10.40;97.50;;;;;;4899719;29;20119;-80
2022/03/03 12:16:34;;;;;;;13.43;9.30;;;10.40;71.30;;;;;;4899730;29;20067;-80
2022/03/03 12:19:00;;;;;;;13.85;9.07;;;10.30;83.00;;;;;;4899428;29;20066;-80
2022/03/03 12:21:50;;;;;;;13.63;8.55;;;10.30;96.80;;;;;;4899484;29;20056;-80
2022/03/03 12:24:20;;;;;;;14.65;8.80;;;10.30;93.20;;;;;;4915237;29;20044;-80
2022/03/03 12:29:37;;;;;;;14.98;8.80;;;10.30;81.20;;;;;;4900213;29;20051;-80
2022/03/03 12:32:29;;;;;;;18.08;10.45;;;10.40;86.50;;;;;;4899613;29;20483;-84
2022/03/03 12:35:00;;;;;;;15.35;9.25;;;10.40;95.20;;;;;;4899943;29;20066;-84
2022/03/03 12:37:27;;;;;;;14.15;9.18;;;10.40;94.40;;;;;;4899592;29;20130;-83
2022/03/03 12:40:00;;;;;;;15.75;9.63;;;10.40;86.20;;;;;;4915018;29;20113;-83
2022/03/03 12:53:10;;;;;;;15.48;7.78;;;10.40;95.50;;;;;;4936574;29;20075;-84
2022/03/03 14:02:49;;;;;;;18.13;8.05;;;10.30;78.20;;;;;;4858667;29;20045;-83
2022/03/03 14:09:31;;;;;;;11.15;6.65;;;10.50;71.40;;;;;;4869375;29;20058;-84
2022/03/03 14:25:16;;;;;;;11.35;6.93;;;10.50;63.70;;;;;;4881922;29;20053;-83
2022/03/03 14:55:58;;;;;;;11.90;6.47;;;10.40;71.10;;;;;;3242413;26;20126;-80
2022/03/03 14:58:30;;;;;;;14.45;6.75;;;10.30;58.90;;;;;;4927075;29;20455;-81
2022/03/03 15:01:06;;;;;;;;;;;;;;;;;;;;;
2022/03/03 15:11:33;;;;;;;13.50;6.63;;;10.10;66.60;;;;;;4742222;30;20456;-81
2022/03/03 15:18:33;;;;;;;13.15;6.47;;;10.10;58.50;;;;;;4774997;30;20062;-80
2022/03/03 15:21:31;;;;;;;12.32;7.70;;;10.00;57.20;;;;;;4841250;29;20494;-80
2022/03/03 15:24:05;;;;;;;15.45;7.00;;;9.90;64.10;;;;;;4925097;23;20051;-81
2022/03/03 15:27:02;;;;;;;11.68;6.20;;;9.90;70.20;;;;;;4941670;29;20481;-80
2022/03/03 15:29:49;;;;;;;14.55;7.63;;;9.90;62.80;;;;;;4939015;29;20055;-80
2022/03/03 15:33:06;;;;;;;13.65;7.50;;;9.90;72.50;;;;;;4941302;29;20483;-80
2022/03/03 15:42:55;;;;;;;13.32;6.88;;;9.70;62.90;;;;;;4936269;29;20139;-82
2022/03/03 15:55:44;;;;;;;14.27;6.65;;;9.50;71.30;;;;;;4959999;23;20059;-83
2022/03/03 15:58:19;;;;;;;11.90;6.65;;;9.40;71.90;;;;;;4945330;29;20624;-83
2022/03/03 16:00:44;;;;;;;11.55;6.40;;;9.30;69.00;;;;;;4951496;29;20058;-83
2022/03/03 16:03:18;;;;;;;14.02;7.95;;;9.30;71.20;;;;;;4937261;29;20063;-84
2022/03/03 16:05:44;;;;;;;12.93;6.97;;;9.30;74.60;;;;;;4951462;29;20498;-83
2022/03/03 16:08:15;;;;;;;15.18;6.53;;;9.20;74.60;;;;;;4948955;29;20067;-83
2022/03/03 16:10:46;;;;;;;13.82;7.82;;;9.10;70.80;;;;;;4939804;29;20079;-82
2022/03/03 16:13:13;;;;;;;13.65;7.28;;;9.00;77.80;;;;;;4940965;29;20043;-82
2022/03/03 16:15:40;;;;;;;15.23;6.95;;;8.90;78.70;;;;;;4946882;29;20039;-82
2022/03/03 16:18:10;;;;;;;14.90;8.55;;;8.90;79.20;;;;;;4943554;29;20055;-83
2022/03/03 16:20:36;;;;;;;11.52;6.78;;;8.80;79.00;;;;;;4942810;29;20050;-82
2022/03/03 16:23:19;;;;;;;11.48;6.53;;;8.70;79.70;;;;;;4939716;29;20063;-82
2022/03/03 16:25:47;;;;;;;11.60;6.82;;;8.70;79.10;;;;;;4938601;29;20043;-82
2022/03/03 16:28:20;;;;;;;12.15;6.07;;;8.60;82.40;;;;;;4939851;29;20035;-82
2022/03/03 16:31:01;;;;;;;10.00;6.28;;;8.60;78.40;;;;;;4946965;29;20070;-83
2022/03/03 16:33:29;;;;;;;12.70;6.10;;;8.50;77.10;;;;;;4949325;29;20125;-83
2022/03/03 16:36:09;;;;;;;14.30;6.78;;;8.40;84.80;;;;;;4945485;29;20562;-83
2022/03/03 16:38:38;;;;;;;12.82;7.28;;;8.40;82.30;;;;;;4952592;29;20066;-83
2022/03/03 16:41:19;;;;;;;13.23;7.35;;;8.30;87.80;;;;;;4951939;29;20043;-83
2022/03/03 16:43:44;;;;;;;12.55;7.53;;;8.20;88.70;;;;;;4954175;29;20110;-83
2022/03/03 16:46:10;;;;;;;14.93;7.40;;;8.10;90.60;;;;;;4947375;29;20074;-84
2022/03/03 16:48:35;;;;;;;13.63;7.28;;;8.00;91.10;;;;;;4951022;29;20031;-83
2022/03/03 16:51:02;;;;;;;16.63;7.05;;;7.90;92.00;;;;;;4948613;29;20130;-83
2022/03/03 16:53:28;;;;;;;12.20;7.72;;;7.80;92.40;;;;;;4947076;29;20078;-83
2022/03/03 16:55:53;;;;;;;11.73;7.00;;;7.80;92.90;;;;;;4947400;29;20047;-83
2022/03/03 16:58:19;;;;;;;17.42;7.78;;;7.70;93.00;;;;;;4946960;29;20063;-83
2022/03/03 17:00:44;;;;;;;16.83;8.82;;;7.60;93.60;;;;;;4947107;29;20459;-83
2022/03/03 17:03:10;;;;;;;14.90;8.50;;;7.60;93.80;;;;;;4948267;29;20043;-82
2022/03/03 17:05:35;;;;;;;15.30;6.95;;;7.50;94.00;;;;;;4947348;29;20067;-82
2022/03/03 17:08:01;;;;;;;13.15;6.90;;;7.40;94.50;;;;;;4946299;29;20047;-83
2022/03/03 17:10:30;;;;;;;17.85;7.38;;;7.30;94.90;;;;;;4945184;29;20039;-82
2022/03/03 17:13:05;;;;;;;21.88;9.75;;;7.30;94.90;;;;;;4942567;29;20538;-86
2022/03/03 17:15:35;;;;;;;16.10;8.07;;;7.10;95.60;;;;;;4937306;29;20090;-86
2022/03/03 17:18:30;;;;;;;23.88;9.45;;;7.00;96.00;;;;;;4935222;29;20137;-86
2022/03/03 17:21:44;;;;;;;17.13;8.55;;;6.90;96.50;;;;;;4937316;29;20047;-86
2022/03/03 17:24:30;;;;;;;15.50;8.43;;;6.80;97.20;;;;;;4919423;29;20051;-86
2022/03/03 17:27:06;;;;;;;14.82;7.55;;;6.70;97.70;;;;;;4953278;29;20047;-86